Historyczne dane pomiarowe

Dodano dane terminowe – wersja testowa.

Dane z okresu 1951-2019

Wersja bazy: 1.34 [2019-03-16, lista zmian], aktualizacja planowana na 2019-04-15

Dane meteo z obszaru Polski uzyskane na podstawie danych udostępnionych przez Instytut Meteorologii i Gospodarki Wodnej – Państwowy Instytut Badawczy.

 

Wybierz Datę:    

       

TemperaturaWilgotnośćWiatrCiśnienieOpadyŚniegCzas trwania zjawisk
 Stacja t tx tn tng RH VA  wxwx mslp ppp RRR   cm mm wxwxwxwxwxwxwx
1987-07-08 18.9 23.2 15.7- 77.5- 5.0 3.7---- 0.0------------
1987-07-07 20.9 27.6 12.8- 57.3- 3.0 4.0---- 0.0------------
1987-07-06 15.9 19.0 7.9- 67.8- 2.7 2.0---- 0.0------------
1987-07-05 14.6 16.4 11.1- 70.5- 2.3 2.7---- 0.0------------
1987-07-04 15.0 17.1 14.2- 81.3- 4.7 4.7---- 0.0------------
1987-07-03 14.9 17.7 9.0- 80.5- 3.0 2.7---- 0.0------------
1987-07-02 14.9 17.0 13.5- 84.5- 3.7 4.0---- 0.0------------
1987-07-01 16.6 25.6 15.2- 90.8- 6.7 2.0---- 0.0------------
1987-06-30 22.0 28.0 15.5- 81.8- 5.7 2.0---- 0.0------------
1987-06-29 15.9 18.8 11.0- 89.3- 6.3 3.3---- 0.0------------
1987-06-28 12.9 15.4 10.5- 83.5- 4.7 6.0---- 2.9------------
1987-06-27 13.0 18.5 11.0- 80.3- 4.7 4.3---- 7.5------------
1987-06-26 14.4 18.5 7.5- 72.5- 7.0 3.3---- 0.0------------
1987-06-25 11.9 14.5 7.4- 86.8- 4.0 3.7---- 0.0------------
1987-06-24 12.2 14.0 11.3- 90.3- 6.3 6.0---- 0.3------------
1987-06-23 14.1 19.0 8.0- 79.8- 7.0 2.7---- 11.2------------
1987-06-22 11.9 14.4 10.5- 87.8- 6.7 4.0---- 0.0------------
1987-06-21 14.7 20.6 12.1- 84.0- 6.0 3.7---- 7.7------------
1987-06-20 13.5 20.4 7.5- 79.8- 6.3 4.0---- 0.0------------
1987-06-19 11.2 12.9 9.3- 86.0- 6.7 6.0---- 0.5------------
1987-06-18 11.4 14.9 6.8- 77.0- 5.3 7.7---- 5.5------------
1987-06-17 11.5 14.0 10.0- 74.8- 6.0 12.3---- 0.0------------
1987-06-16 9.9 11.5 8.5- 95.0- 7.3 10.3---- 0.3------------
1987-06-15 11.5 14.8 8.1- 86.3- 7.7 6.7---- 36.0------------
1987-06-14 13.8 17.5 11.0- 88.5- 6.7 2.7---- 0.0------------
1987-06-13 12.1 14.2 10.0- 78.5- 4.7 3.7---- 1.0------------
1987-06-12 13.8 19.0 11.5- 89.5- 4.3 6.0---- 0.9------------
1987-06-11 15.0 20.4 9.3- 81.3- 5.0 2.0---- 0.0------------
1987-06-10 12.6 16.0 8.9- 87.0- 5.0 1.7---- 0.0------------
1987-06-09 13.7 16.4 10.3- 76.5- 5.0 4.3---- 0.0------------
1987-06-08 15.7 21.5 10.1- 82.5- 6.7 5.3---- 1.8------------
1987-06-07 14.8 16.2 12.0- 82.3- 6.0 3.3---- 2.0------------
1987-06-06 11.9 16.0 8.0- 88.3- 4.3 4.0---- 0.0------------
1987-06-05 9.3 10.5 8.5- 95.8- 8.0 3.0---- 0.0------------
1987-06-04 11.2 13.2 9.5- 94.0- 8.0 2.3---- 2.5------------
1987-06-03 9.7 12.4 7.5- 91.3- 6.0 3.3---- 3.8------------
1987-06-02 8.4 11.4 6.6- 95.5- 5.0 3.0---- 0.0------------
1987-06-01 8.0 11.6 3.4- 89.3- 8.0 3.0---- 0.6------------
1987-05-31 7.2 9.0 4.6- 82.8- 3.7 3.3---- 0.0------------
1987-05-30 6.3 7.8 5.6- 88.5- 7.3 4.7---- 0.0------------
1987-05-29 6.5 7.5 5.7- 91.8- 8.0 5.3---- 0.0------------
1987-05-28 8.9 13.4 7.1- 94.8- 8.0 7.0---- 0.7------------
1987-05-27 10.4 15.3 3.8- 76.8- 4.7 4.0---- 1.3------------
1987-05-26 7.9 11.5 1.0- 82.0- 1.0 3.3---- 0.0------------
1987-05-25 6.8 9.0 5.1- 84.5- 1.7 6.0---- 0.0------------
1987-05-24 7.5 10.5 3.2- 78.5- 2.7 10.0---- 0.0------------
1987-05-23 7.9 9.4 6.6- 75.8- 2.7 6.7---- 0.0------------
1987-05-22 7.1 8.4 5.6- 89.0- 7.0 10.3---- 0.0------------
1987-05-21 7.3 11.2 3.4- 83.3- 7.0 4.0---- 0.0------------
1987-05-20 7.8 10.7 4.1- 72.0- 6.3 2.3---- 0.0------------
1987-05-19 9.3 11.5 5.3- 79.3- 2.0 3.3---- 0.0------------
1987-05-18 8.6 12.3 3.5- 74.3- 5.7 5.0---- 0.0------------
1987-05-17 8.4 11.0 6.6- 84.8- 4.7 8.7---- 0.0------------
1987-05-16 11.9 15.6 8.5- 77.0- 7.0 3.3---- 13.5------------
1987-05-15 10.6 16.0 2.4- 60.0- 6.0 3.0---- 0.2------------
1987-05-14 7.7 10.0 4.4- 78.5- 4.3 3.7---- 0.0------------
1987-05-13 9.6 11.0 8.1- 80.0- 5.7 3.3---- 0.0------------
1987-05-12 9.1 13.2 6.6- 86.5- 8.0 5.3---- 3.0------------
1987-05-11 7.6 10.2 5.8- 81.0- 5.7 8.0---- 3.5------------
1987-05-10 9.1 12.5 7.1- 81.3- 5.7 4.0---- 0.0------------
1144.0 ms

 

Źródłem pochodzenia danych jest Instytut Meteorologii i Gospodarki Wodnej – Państwowy Instytut Badawczy. Dane Instytutu Meteorologii i Gospodarki Wodnej – Państwowego Instytutu Badawczego zostały przetworzone.

Dane źródłowe można odnaleźć na stronie https://dane.imgw.pl